sensor_id;sensor_type;location;lat;lon;timestamp;P1;durP1;ratioP1;P2;durP2;ratioP2
61911;SDS011;49973;52.084;5.412;2022-12-18T00:00:09;53.10;;;18.17;;
61911;SDS011;49973;52.084;5.412;2022-12-18T00:02:41;49.23;;;18.97;;
61911;SDS011;49973;52.084;5.412;2022-12-18T00:05:12;43.90;;;18.57;;
61911;SDS011;49973;52.084;5.412;2022-12-18T00:07:40;44.40;;;17.90;;
61911;SDS011;49973;52.084;5.412;2022-12-18T00:10:09;45.17;;;18.50;;
61911;SDS011;49973;52.084;5.412;2022-12-18T00:12:41;57.33;;;20.73;;
61911;SDS011;49973;52.084;5.412;2022-12-18T00:15:09;56.03;;;20.67;;
61911;SDS011;49973;52.084;5.412;2022-12-18T00:17:38;57.97;;;20.63;;
61911;SDS011;49973;52.084;5.412;2022-12-18T00:20:07;62.40;;;19.77;;
61911;SDS011;49973;52.084;5.412;2022-12-18T00:22:38;52.53;;;20.93;;
61911;SDS011;49973;52.084;5.412;2022-12-18T00:25:07;59.27;;;19.93;;
61911;SDS011;49973;52.084;5.412;2022-12-18T00:27:36;51.57;;;18.70;;
61911;SDS011;49973;52.084;5.412;2022-12-18T00:30:05;54.20;;;19.60;;
61911;SDS011;49973;52.084;5.412;2022-12-18T00:32:35;52.30;;;19.13;;
61911;SDS011;49973;52.084;5.412;2022-12-18T00:35:04;59.13;;;20.23;;
61911;SDS011;49973;52.084;5.412;2022-12-18T00:37:34;53.67;;;21.27;;
61911;SDS011;49973;52.084;5.412;2022-12-18T00:40:06;57.83;;;21.93;;
61911;SDS011;49973;52.084;5.412;2022-12-18T00:42:36;64.60;;;22.27;;
61911;SDS011;49973;52.084;5.412;2022-12-18T00:45:22;47.30;;;19.87;;
61911;SDS011;49973;52.084;5.412;2022-12-18T00:47:51;47.33;;;19.77;;
61911;SDS011;49973;52.084;5.412;2022-12-18T00:50:21;57.30;;;19.87;;
61911;SDS011;49973;52.084;5.412;2022-12-18T00:52:50;55.80;;;19.37;;
61911;SDS011;49973;52.084;5.412;2022-12-18T00:55:20;52.70;;;19.23;;
61911;SDS011;49973;52.084;5.412;2022-12-18T00:57:48;54.33;;;19.93;;
61911;SDS011;49973;52.084;5.412;2022-12-18T01:00:19;42.30;;;18.37;;
61911;SDS011;49973;52.084;5.412;2022-12-18T01:02:47;48.93;;;19.20;;
61911;SDS011;49973;52.084;5.412;2022-12-18T01:05:16;48.80;;;17.63;;
61911;SDS011;49973;52.084;5.412;2022-12-18T01:07:45;64.83;;;20.83;;
61911;SDS011;49973;52.084;5.412;2022-12-18T01:10:13;52.70;;;18.63;;
61911;SDS011;49973;52.084;5.412;2022-12-18T01:12:43;53.57;;;20.37;;
61911;SDS011;49973;52.084;5.412;2022-12-18T01:15:12;42.40;;;16.17;;
61911;SDS011;49973;52.084;5.412;2022-12-18T01:17:42;53.97;;;19.93;;
61911;SDS011;49973;52.084;5.412;2022-12-18T01:20:11;49.83;;;19.50;;
61911;SDS011;49973;52.084;5.412;2022-12-18T01:22:40;47.17;;;19.60;;
61911;SDS011;49973;52.084;5.412;2022-12-18T01:25:09;47.80;;;21.37;;
61911;SDS011;49973;52.084;5.412;2022-12-18T01:27:37;60.77;;;22.33;;
61911;SDS011;49973;52.084;5.412;2022-12-18T01:30:08;52.13;;;22.00;;
61911;SDS011;49973;52.084;5.412;2022-12-18T01:32:37;52.40;;;19.03;;
61911;SDS011;49973;52.084;5.412;2022-12-18T01:35:06;51.13;;;17.27;;
61911;SDS011;49973;52.084;5.412;2022-12-18T01:37:35;45.73;;;19.97;;
61911;SDS011;49973;52.084;5.412;2022-12-18T01:40:04;53.50;;;19.23;;
61911;SDS011;49973;52.084;5.412;2022-12-18T01:42:33;53.93;;;20.40;;
61911;SDS011;49973;52.084;5.412;2022-12-18T01:45:08;54.03;;;19.87;;
61911;SDS011;49973;52.084;5.412;2022-12-18T01:47:53;44.73;;;20.17;;
61911;SDS011;49973;52.084;5.412;2022-12-18T01:50:24;55.63;;;19.97;;
61911;SDS011;49973;52.084;5.412;2022-12-18T01:52:59;50.40;;;18.60;;
61911;SDS011;49973;52.084;5.412;2022-12-18T01:55:32;57.20;;;21.40;;
61911;SDS011;49973;52.084;5.412;2022-12-18T01:58:05;53.03;;;18.00;;
61911;SDS011;49973;52.084;5.412;2022-12-18T02:00:35;57.57;;;20.53;;
61911;SDS011;49973;52.084;5.412;2022-12-18T02:03:03;54.00;;;18.23;;
61911;SDS011;49973;52.084;5.412;2022-12-18T02:05:35;52.23;;;18.87;;
61911;SDS011;49973;52.084;5.412;2022-12-18T02:08:13;65.00;;;19.37;;
61911;SDS011;49973;52.084;5.412;2022-12-18T02:10:48;49.90;;;18.87;;
61911;SDS011;49973;52.084;5.412;2022-12-18T02:13:25;51.83;;;18.37;;
61911;SDS011;49973;52.084;5.412;2022-12-18T02:16:03;44.30;;;18.37;;
61911;SDS011;49973;52.084;5.412;2022-12-18T02:18:40;46.27;;;17.20;;
61911;SDS011;49973;52.084;5.412;2022-12-18T02:21:12;53.93;;;19.03;;
61911;SDS011;49973;52.084;5.412;2022-12-18T02:23:50;51.10;;;18.07;;
61911;SDS011;49973;52.084;5.412;2022-12-18T02:26:27;58.93;;;20.80;;
61911;SDS011;49973;52.084;5.412;2022-12-18T02:29:01;44.57;;;18.23;;
61911;SDS011;49973;52.084;5.412;2022-12-18T02:31:36;45.37;;;16.97;;
61911;SDS011;49973;52.084;5.412;2022-12-18T02:34:10;47.60;;;18.40;;
61911;SDS011;49973;52.084;5.412;2022-12-18T02:36:40;51.00;;;18.77;;
61911;SDS011;49973;52.084;5.412;2022-12-18T02:39:12;64.27;;;19.37;;
61911;SDS011;49973;52.084;5.412;2022-12-18T02:41:56;45.73;;;18.87;;
61911;SDS011;49973;52.084;5.412;2022-12-18T02:44:26;43.57;;;17.67;;
61911;SDS011;49973;52.084;5.412;2022-12-18T02:46:55;48.13;;;18.67;;
61911;SDS011;49973;52.084;5.412;2022-12-18T02:49:26;48.30;;;17.60;;
61911;SDS011;49973;52.084;5.412;2022-12-18T02:52:05;40.60;;;15.83;;
61911;SDS011;49973;52.084;5.412;2022-12-18T02:54:49;49.37;;;17.03;;
61911;SDS011;49973;52.084;5.412;2022-12-18T02:57:28;38.27;;;15.60;;
61911;SDS011;49973;52.084;5.412;2022-12-18T03:00:04;53.47;;;18.63;;
61911;SDS011;49973;52.084;5.412;2022-12-18T03:02:38;39.10;;;16.47;;
61911;SDS011;49973;52.084;5.412;2022-12-18T03:05:11;42.10;;;17.20;;
61911;SDS011;49973;52.084;5.412;2022-12-18T03:07:46;50.73;;;16.93;;
61911;SDS011;49973;52.084;5.412;2022-12-18T03:10:20;49.73;;;18.13;;
61911;SDS011;49973;52.084;5.412;2022-12-18T03:12:56;48.27;;;18.60;;
61911;SDS011;49973;52.084;5.412;2022-12-18T03:15:31;41.67;;;16.47;;
61911;SDS011;49973;52.084;5.412;2022-12-18T03:18:10;50.73;;;18.77;;
61911;SDS011;49973;52.084;5.412;2022-12-18T03:20:41;46.97;;;17.53;;
61911;SDS011;49973;52.084;5.412;2022-12-18T03:23:19;39.50;;;17.30;;
61911;SDS011;49973;52.084;5.412;2022-12-18T03:26:06;42.77;;;14.93;;
61911;SDS011;49973;52.084;5.412;2022-12-18T03:28:42;37.27;;;16.17;;
61911;SDS011;49973;52.084;5.412;2022-12-18T03:31:13;38.07;;;16.63;;
61911;SDS011;49973;52.084;5.412;2022-12-18T03:33:44;50.00;;;18.60;;
61911;SDS011;49973;52.084;5.412;2022-12-18T03:36:23;42.60;;;16.93;;
61911;SDS011;49973;52.084;5.412;2022-12-18T03:38:52;41.57;;;15.87;;
61911;SDS011;49973;52.084;5.412;2022-12-18T03:41:27;33.70;;;16.10;;
61911;SDS011;49973;52.084;5.412;2022-12-18T03:44:26;42.73;;;17.73;;
61911;SDS011;49973;52.084;5.412;2022-12-18T03:47:05;35.07;;;16.37;;
61911;SDS011;49973;52.084;5.412;2022-12-18T03:49:38;46.80;;;16.03;;
61911;SDS011;49973;52.084;5.412;2022-12-18T03:52:15;40.17;;;16.93;;
61911;SDS011;49973;52.084;5.412;2022-12-18T03:54:48;33.07;;;14.37;;
61911;SDS011;49973;52.084;5.412;2022-12-18T03:57:19;40.47;;;17.67;;
61911;SDS011;49973;52.084;5.412;2022-12-18T03:59:55;36.97;;;15.30;;
61911;SDS011;49973;52.084;5.412;2022-12-18T04:02:41;41.83;;;16.00;;
61911;SDS011;49973;52.084;5.412;2022-12-18T04:05:18;40.67;;;15.47;;
61911;SDS011;49973;52.084;5.412;2022-12-18T04:07:48;34.27;;;15.40;;
61911;SDS011;49973;52.084;5.412;2022-12-18T04:10:18;30.57;;;14.27;;
61911;SDS011;49973;52.084;5.412;2022-12-18T04:12:47;40.17;;;14.87;;
61911;SDS011;49973;52.084;5.412;2022-12-18T04:15:20;27.87;;;13.43;;
61911;SDS011;49973;52.084;5.412;2022-12-18T04:17:50;27.70;;;14.03;;
61911;SDS011;49973;52.084;5.412;2022-12-18T04:20:24;37.63;;;14.60;;
61911;SDS011;49973;52.084;5.412;2022-12-18T04:22:52;30.27;;;13.20;;
61911;SDS011;49973;52.084;5.412;2022-12-18T04:25:21;37.37;;;12.80;;
61911;SDS011;49973;52.084;5.412;2022-12-18T04:28:01;33.53;;;14.13;;
61911;SDS011;49973;52.084;5.412;2022-12-18T04:30:31;32.33;;;14.80;;
61911;SDS011;49973;52.084;5.412;2022-12-18T04:32:59;27.23;;;14.40;;
61911;SDS011;49973;52.084;5.412;2022-12-18T04:35:29;28.20;;;12.67;;
61911;SDS011;49973;52.084;5.412;2022-12-18T04:37:58;30.23;;;14.80;;
61911;SDS011;49973;52.084;5.412;2022-12-18T04:40:27;31.40;;;14.70;;
61911;SDS011;49973;52.084;5.412;2022-12-18T04:42:56;30.53;;;14.03;;
61911;SDS011;49973;52.084;5.412;2022-12-18T04:45:24;27.70;;;12.40;;
61911;SDS011;49973;52.084;5.412;2022-12-18T04:47:54;30.00;;;12.27;;
61911;SDS011;49973;52.084;5.412;2022-12-18T04:50:25;29.97;;;12.53;;
61911;SDS011;49973;52.084;5.412;2022-12-18T04:52:54;24.90;;;12.30;;
61911;SDS011;49973;52.084;5.412;2022-12-18T04:55:23;26.00;;;12.40;;
61911;SDS011;49973;52.084;5.412;2022-12-18T04:57:51;23.77;;;12.07;;
61911;SDS011;49973;52.084;5.412;2022-12-18T05:00:20;27.80;;;12.57;;
61911;SDS011;49973;52.084;5.412;2022-12-18T05:02:49;25.87;;;11.63;;
61911;SDS011;49973;52.084;5.412;2022-12-18T05:05:19;28.40;;;12.03;;
61911;SDS011;49973;52.084;5.412;2022-12-18T05:07:47;27.70;;;12.93;;
61911;SDS011;49973;52.084;5.412;2022-12-18T05:10:16;29.47;;;12.67;;
61911;SDS011;49973;52.084;5.412;2022-12-18T05:12:45;27.40;;;11.57;;
61911;SDS011;49973;52.084;5.412;2022-12-18T05:15:28;24.67;;;12.10;;
61911;SDS011;49973;52.084;5.412;2022-12-18T05:17:57;28.67;;;12.23;;
61911;SDS011;49973;52.084;5.412;2022-12-18T05:20:28;24.97;;;11.23;;
61911;SDS011;49973;52.084;5.412;2022-12-18T05:22:57;18.53;;;10.00;;
61911;SDS011;49973;52.084;5.412;2022-12-18T05:25:26;23.97;;;11.57;;
61911;SDS011;49973;52.084;5.412;2022-12-18T05:27:55;24.00;;;11.93;;
61911;SDS011;49973;52.084;5.412;2022-12-18T05:30:23;23.93;;;11.43;;
61911;SDS011;49973;52.084;5.412;2022-12-18T05:32:52;23.13;;;12.13;;
61911;SDS011;49973;52.084;5.412;2022-12-18T05:35:20;29.33;;;12.87;;
61911;SDS011;49973;52.084;5.412;2022-12-18T05:37:50;26.30;;;12.00;;
61911;SDS011;49973;52.084;5.412;2022-12-18T05:40:19;23.77;;;12.40;;
61911;SDS011;49973;52.084;5.412;2022-12-18T05:42:47;22.97;;;11.70;;
61911;SDS011;49973;52.084;5.412;2022-12-18T05:45:16;30.40;;;13.67;;
61911;SDS011;49973;52.084;5.412;2022-12-18T05:47:44;30.90;;;15.03;;
61911;SDS011;49973;52.084;5.412;2022-12-18T05:50:13;25.27;;;12.00;;
61911;SDS011;49973;52.084;5.412;2022-12-18T05:52:41;22.87;;;10.77;;
61911;SDS011;49973;52.084;5.412;2022-12-18T05:55:11;21.97;;;10.77;;
61911;SDS011;49973;52.084;5.412;2022-12-18T05:57:40;24.93;;;12.07;;
61911;SDS011;49973;52.084;5.412;2022-12-18T06:00:09;24.83;;;11.47;;
61911;SDS011;49973;52.084;5.412;2022-12-18T06:02:38;19.40;;;12.27;;
61911;SDS011;49973;52.084;5.412;2022-12-18T06:05:07;22.17;;;11.23;;
61911;SDS011;49973;52.084;5.412;2022-12-18T06:07:36;17.30;;;9.77;;
61911;SDS011;49973;52.084;5.412;2022-12-18T06:10:05;21.83;;;10.60;;
61911;SDS011;49973;52.084;5.412;2022-12-18T06:12:35;21.87;;;10.43;;
61911;SDS011;49973;52.084;5.412;2022-12-18T06:15:04;29.50;;;11.17;;
61911;SDS011;49973;52.084;5.412;2022-12-18T06:17:34;21.13;;;10.90;;
61911;SDS011;49973;52.084;5.412;2022-12-18T06:20:03;20.53;;;11.00;;
61911;SDS011;49973;52.084;5.412;2022-12-18T06:22:33;19.60;;;8.50;;
61911;SDS011;49973;52.084;5.412;2022-12-18T06:25:02;19.67;;;10.70;;
61911;SDS011;49973;52.084;5.412;2022-12-18T06:27:33;24.37;;;11.63;;
61911;SDS011;49973;52.084;5.412;2022-12-18T06:30:03;20.83;;;10.67;;
61911;SDS011;49973;52.084;5.412;2022-12-18T06:32:32;19.97;;;9.67;;
61911;SDS011;49973;52.084;5.412;2022-12-18T06:35:01;19.13;;;10.10;;
61911;SDS011;49973;52.084;5.412;2022-12-18T06:37:30;16.90;;;8.80;;
61911;SDS011;49973;52.084;5.412;2022-12-18T06:39:59;21.57;;;10.30;;
61911;SDS011;49973;52.084;5.412;2022-12-18T06:42:28;17.17;;;10.23;;
61911;SDS011;49973;52.084;5.412;2022-12-18T06:44:58;19.83;;;10.47;;
61911;SDS011;49973;52.084;5.412;2022-12-18T06:47:26;19.27;;;9.77;;
61911;SDS011;49973;52.084;5.412;2022-12-18T06:49:55;19.40;;;10.93;;
61911;SDS011;49973;52.084;5.412;2022-12-18T06:52:24;19.13;;;9.53;;
61911;SDS011;49973;52.084;5.412;2022-12-18T06:54:52;20.87;;;10.60;;
61911;SDS011;49973;52.084;5.412;2022-12-18T06:57:21;18.43;;;10.30;;
61911;SDS011;49973;52.084;5.412;2022-12-18T06:59:49;18.73;;;10.53;;
61911;SDS011;49973;52.084;5.412;2022-12-18T07:02:19;17.73;;;10.30;;
61911;SDS011;49973;52.084;5.412;2022-12-18T07:04:48;18.40;;;10.57;;
61911;SDS011;49973;52.084;5.412;2022-12-18T07:07:19;24.30;;;10.27;;
61911;SDS011;49973;52.084;5.412;2022-12-18T07:09:48;21.07;;;9.73;;
61911;SDS011;49973;52.084;5.412;2022-12-18T07:12:17;18.70;;;10.40;;
61911;SDS011;49973;52.084;5.412;2022-12-18T07:14:46;19.90;;;9.10;;
61911;SDS011;49973;52.084;5.412;2022-12-18T07:17:14;26.70;;;11.33;;
61911;SDS011;49973;52.084;5.412;2022-12-18T07:19:44;19.27;;;10.40;;
61911;SDS011;49973;52.084;5.412;2022-12-18T07:22:13;23.03;;;11.70;;
61911;SDS011;49973;52.084;5.412;2022-12-18T07:24:41;26.07;;;12.30;;
61911;SDS011;49973;52.084;5.412;2022-12-18T07:27:10;18.73;;;10.53;;
61911;SDS011;49973;52.084;5.412;2022-12-18T07:29:39;22.97;;;11.07;;
61911;SDS011;49973;52.084;5.412;2022-12-18T07:32:07;25.17;;;11.60;;
61911;SDS011;49973;52.084;5.412;2022-12-18T07:34:36;22.33;;;10.83;;
61911;SDS011;49973;52.084;5.412;2022-12-18T07:37:06;22.63;;;9.90;;
61911;SDS011;49973;52.084;5.412;2022-12-18T07:39:34;18.17;;;9.93;;
61911;SDS011;49973;52.084;5.412;2022-12-18T07:42:03;21.07;;;11.20;;
61911;SDS011;49973;52.084;5.412;2022-12-18T07:44:50;19.57;;;10.60;;
61911;SDS011;49973;52.084;5.412;2022-12-18T07:47:19;19.60;;;9.47;;
61911;SDS011;49973;52.084;5.412;2022-12-18T07:49:47;25.80;;;11.20;;
61911;SDS011;49973;52.084;5.412;2022-12-18T07:52:17;19.77;;;10.40;;
61911;SDS011;49973;52.084;5.412;2022-12-18T07:54:51;25.00;;;10.73;;
61911;SDS011;49973;52.084;5.412;2022-12-18T07:57:20;22.03;;;11.37;;
61911;SDS011;49973;52.084;5.412;2022-12-18T08:00:09;20.93;;;12.10;;
61911;SDS011;49973;52.084;5.412;2022-12-18T08:02:39;18.33;;;10.10;;
61911;SDS011;49973;52.084;5.412;2022-12-18T08:05:08;20.40;;;11.40;;
61911;SDS011;49973;52.084;5.412;2022-12-18T08:07:38;21.63;;;10.10;;
61911;SDS011;49973;52.084;5.412;2022-12-18T08:10:07;19.63;;;11.47;;
61911;SDS011;49973;52.084;5.412;2022-12-18T08:12:36;26.63;;;13.27;;
61911;SDS011;49973;52.084;5.412;2022-12-18T08:15:04;19.10;;;10.93;;
61911;SDS011;49973;52.084;5.412;2022-12-18T08:17:33;26.13;;;12.00;;
61911;SDS011;49973;52.084;5.412;2022-12-18T08:20:02;22.60;;;10.70;;
61911;SDS011;49973;52.084;5.412;2022-12-18T08:22:33;21.23;;;10.93;;
61911;SDS011;49973;52.084;5.412;2022-12-18T08:25:03;16.47;;;10.03;;
61911;SDS011;49973;52.084;5.412;2022-12-18T08:27:32;17.90;;;9.20;;
61911;SDS011;49973;52.084;5.412;2022-12-18T08:30:01;23.53;;;9.23;;
61911;SDS011;49973;52.084;5.412;2022-12-18T08:32:31;21.63;;;10.97;;
61911;SDS011;49973;52.084;5.412;2022-12-18T08:35:00;23.53;;;10.23;;
61911;SDS011;49973;52.084;5.412;2022-12-18T08:37:29;21.67;;;10.50;;
61911;SDS011;49973;52.084;5.412;2022-12-18T08:39:57;19.07;;;9.83;;
61911;SDS011;49973;52.084;5.412;2022-12-18T08:42:27;21.63;;;10.83;;
61911;SDS011;49973;52.084;5.412;2022-12-18T08:45:13;21.60;;;10.10;;
61911;SDS011;49973;52.084;5.412;2022-12-18T08:47:43;17.83;;;10.30;;
61911;SDS011;49973;52.084;5.412;2022-12-18T08:50:12;18.03;;;9.67;;
61911;SDS011;49973;52.084;5.412;2022-12-18T08:52:41;19.50;;;10.57;;
61911;SDS011;49973;52.084;5.412;2022-12-18T08:55:10;18.97;;;9.43;;
61911;SDS011;49973;52.084;5.412;2022-12-18T08:57:39;18.43;;;9.00;;
61911;SDS011;49973;52.084;5.412;2022-12-18T09:00:08;15.07;;;8.77;;
61911;SDS011;49973;52.084;5.412;2022-12-18T09:02:38;13.47;;;9.50;;
61911;SDS011;49973;52.084;5.412;2022-12-18T09:05:07;17.33;;;9.27;;
61911;SDS011;49973;52.084;5.412;2022-12-18T09:07:35;18.17;;;9.77;;
61911;SDS011;49973;52.084;5.412;2022-12-18T09:10:04;16.03;;;7.83;;
61911;SDS011;49973;52.084;5.412;2022-12-18T09:12:33;12.87;;;7.37;;
61911;SDS011;49973;52.084;5.412;2022-12-18T09:15:04;14.23;;;8.13;;
61911;SDS011;49973;52.084;5.412;2022-12-18T09:17:33;15.00;;;8.67;;
61911;SDS011;49973;52.084;5.412;2022-12-18T09:20:02;16.53;;;8.93;;
61911;SDS011;49973;52.084;5.412;2022-12-18T09:22:31;14.70;;;7.97;;
61911;SDS011;49973;52.084;5.412;2022-12-18T09:24:59;18.67;;;9.53;;
61911;SDS011;49973;52.084;5.412;2022-12-18T09:27:28;14.87;;;8.10;;
61911;SDS011;49973;52.084;5.412;2022-12-18T09:29:56;11.90;;;7.73;;
61911;SDS011;49973;52.084;5.412;2022-12-18T09:32:27;13.47;;;8.53;;
61911;SDS011;49973;52.084;5.412;2022-12-18T09:34:56;18.10;;;9.30;;
61911;SDS011;49973;52.084;5.412;2022-12-18T09:37:24;16.03;;;8.57;;
61911;SDS011;49973;52.084;5.412;2022-12-18T09:39:53;17.63;;;8.53;;
61911;SDS011;49973;52.084;5.412;2022-12-18T09:42:21;16.17;;;9.37;;
61911;SDS011;49973;52.084;5.412;2022-12-18T09:44:50;14.93;;;8.53;;
61911;SDS011;49973;52.084;5.412;2022-12-18T09:47:22;15.70;;;7.83;;
61911;SDS011;49973;52.084;5.412;2022-12-18T09:49:56;14.63;;;8.40;;
61911;SDS011;49973;52.084;5.412;2022-12-18T09:52:27;13.57;;;7.83;;
61911;SDS011;49973;52.084;5.412;2022-12-18T09:54:59;18.90;;;8.30;;
61911;SDS011;49973;52.084;5.412;2022-12-18T09:57:31;14.47;;;8.30;;
61911;SDS011;49973;52.084;5.412;2022-12-18T10:00:08;16.03;;;8.97;;
61911;SDS011;49973;52.084;5.412;2022-12-18T10:02:45;13.60;;;7.50;;
61911;SDS011;49973;52.084;5.412;2022-12-18T10:05:16;13.93;;;7.60;;
61911;SDS011;49973;52.084;5.412;2022-12-18T10:07:50;17.57;;;7.50;;
61911;SDS011;49973;52.084;5.412;2022-12-18T10:10:26;13.83;;;8.53;;
61911;SDS011;49973;52.084;5.412;2022-12-18T10:13:05;15.03;;;9.20;;
61911;SDS011;49973;52.084;5.412;2022-12-18T10:15:45;13.67;;;7.87;;
61911;SDS011;49973;52.084;5.412;2022-12-18T10:18:29;23.03;;;11.03;;
61911;SDS011;49973;52.084;5.412;2022-12-18T10:21:09;17.63;;;9.77;;
61911;SDS011;49973;52.084;5.412;2022-12-18T10:23:42;14.70;;;8.43;;
61911;SDS011;49973;52.084;5.412;2022-12-18T10:26:19;14.50;;;8.37;;
61911;SDS011;49973;52.084;5.412;2022-12-18T10:28:48;16.03;;;9.13;;
61911;SDS011;49973;52.084;5.412;2022-12-18T10:31:18;15.90;;;8.13;;
61911;SDS011;49973;52.084;5.412;2022-12-18T10:33:50;14.60;;;8.30;;
61911;SDS011;49973;52.084;5.412;2022-12-18T10:36:24;14.17;;;8.20;;
61911;SDS011;49973;52.084;5.412;2022-12-18T10:38:53;12.90;;;8.40;;
61911;SDS011;49973;52.084;5.412;2022-12-18T10:41:25;14.47;;;7.97;;
61911;SDS011;49973;52.084;5.412;2022-12-18T10:44:10;11.73;;;7.27;;
61911;SDS011;49973;52.084;5.412;2022-12-18T10:46:40;14.10;;;7.53;;
61911;SDS011;49973;52.084;5.412;2022-12-18T10:49:18;17.03;;;8.00;;
61911;SDS011;49973;52.084;5.412;2022-12-18T10:51:50;16.30;;;8.23;;
61911;SDS011;49973;52.084;5.412;2022-12-18T10:54:31;15.97;;;8.37;;
61911;SDS011;49973;52.084;5.412;2022-12-18T10:57:13;15.07;;;7.87;;
61911;SDS011;49973;52.084;5.412;2022-12-18T10:59:49;14.43;;;7.90;;
61911;SDS011;49973;52.084;5.412;2022-12-18T11:02:27;14.77;;;7.80;;
61911;SDS011;49973;52.084;5.412;2022-12-18T11:05:01;14.27;;;7.23;;
61911;SDS011;49973;52.084;5.412;2022-12-18T11:10:18;18.60;;;6.97;;
61911;SDS011;49973;52.084;5.412;2022-12-18T11:12:47;18.27;;;8.13;;
61911;SDS011;49973;52.084;5.412;2022-12-18T11:15:16;12.33;;;7.50;;
61911;SDS011;49973;52.084;5.412;2022-12-18T11:17:48;18.17;;;7.57;;
61911;SDS011;49973;52.084;5.412;2022-12-18T11:20:20;14.20;;;7.50;;
61911;SDS011;49973;52.084;5.412;2022-12-18T11:22:56;14.30;;;7.23;;
61911;SDS011;49973;52.084;5.412;2022-12-18T11:25:28;12.07;;;6.83;;
61911;SDS011;49973;52.084;5.412;2022-12-18T11:28:00;12.33;;;8.37;;
61911;SDS011;49973;52.084;5.412;2022-12-18T11:30:31;12.80;;;8.10;;
61911;SDS011;49973;52.084;5.412;2022-12-18T11:33:03;15.40;;;8.27;;
61911;SDS011;49973;52.084;5.412;2022-12-18T11:35:35;15.33;;;8.07;;
61911;SDS011;49973;52.084;5.412;2022-12-18T11:38:12;16.37;;;7.87;;
61911;SDS011;49973;52.084;5.412;2022-12-18T11:40:51;15.70;;;7.03;;
61911;SDS011;49973;52.084;5.412;2022-12-18T11:43:27;18.43;;;8.20;;
61911;SDS011;49973;52.084;5.412;2022-12-18T11:45:59;14.47;;;7.77;;
61911;SDS011;49973;52.084;5.412;2022-12-18T11:48:32;14.47;;;7.67;;
61911;SDS011;49973;52.084;5.412;2022-12-18T11:51:09;12.57;;;7.47;;
61911;SDS011;49973;52.084;5.412;2022-12-18T11:53:43;12.33;;;6.97;;
61911;SDS011;49973;52.084;5.412;2022-12-18T11:56:17;13.77;;;7.27;;
61911;SDS011;49973;52.084;5.412;2022-12-18T11:58:59;12.40;;;7.10;;
61911;SDS011;49973;52.084;5.412;2022-12-18T12:01:38;12.23;;;6.63;;
61911;SDS011;49973;52.084;5.412;2022-12-18T12:07:22;12.63;;;7.00;;
61911;SDS011;49973;52.084;5.412;2022-12-18T12:10:03;10.67;;;6.43;;
61911;SDS011;49973;52.084;5.412;2022-12-18T12:12:50;16.80;;;8.43;;
61911;SDS011;49973;52.084;5.412;2022-12-18T12:15:33;13.20;;;7.50;;
61911;SDS011;49973;52.084;5.412;2022-12-18T12:18:11;16.43;;;7.97;;
61911;SDS011;49973;52.084;5.412;2022-12-18T12:20:52;14.03;;;7.50;;
61911;SDS011;49973;52.084;5.412;2022-12-18T12:23:31;13.63;;;7.23;;
61911;SDS011;49973;52.084;5.412;2022-12-18T12:26:11;19.27;;;8.37;;
61911;SDS011;49973;52.084;5.412;2022-12-18T12:28:49;12.77;;;7.03;;
61911;SDS011;49973;52.084;5.412;2022-12-18T12:31:32;16.23;;;8.47;;
61911;SDS011;49973;52.084;5.412;2022-12-18T12:34:12;15.87;;;8.93;;
61911;SDS011;49973;52.084;5.412;2022-12-18T12:36:49;15.50;;;8.00;;
61911;SDS011;49973;52.084;5.412;2022-12-18T12:39:30;14.60;;;7.07;;
61911;SDS011;49973;52.084;5.412;2022-12-18T12:42:02;12.93;;;8.10;;
61911;SDS011;49973;52.084;5.412;2022-12-18T12:44:51;14.23;;;8.20;;
61911;SDS011;49973;52.084;5.412;2022-12-18T12:47:25;16.17;;;8.53;;
61911;SDS011;49973;52.084;5.412;2022-12-18T12:49:59;12.53;;;7.03;;
61911;SDS011;49973;52.084;5.412;2022-12-18T12:52:34;19.07;;;8.67;;
61911;SDS011;49973;52.084;5.412;2022-12-18T12:57:57;14.70;;;8.40;;
61911;SDS011;49973;52.084;5.412;2022-12-18T13:00:30;16.07;;;8.07;;
61911;SDS011;49973;52.084;5.412;2022-12-18T13:03:08;15.57;;;7.83;;
61911;SDS011;49973;52.084;5.412;2022-12-18T13:05:44;14.00;;;8.50;;
61911;SDS011;49973;52.084;5.412;2022-12-18T13:08:23;16.23;;;8.60;;
61911;SDS011;49973;52.084;5.412;2022-12-18T13:10:53;14.13;;;9.17;;
61911;SDS011;49973;52.084;5.412;2022-12-18T13:13:50;15.23;;;7.60;;
61911;SDS011;49973;52.084;5.412;2022-12-18T13:16:19;22.53;;;9.00;;
61911;SDS011;49973;52.084;5.412;2022-12-18T13:18:49;17.70;;;8.70;;
61911;SDS011;49973;52.084;5.412;2022-12-18T13:21:21;12.47;;;7.40;;
61911;SDS011;49973;52.084;5.412;2022-12-18T13:23:52;20.40;;;9.43;;
61911;SDS011;49973;52.084;5.412;2022-12-18T13:26:29;14.13;;;7.93;;
61911;SDS011;49973;52.084;5.412;2022-12-18T13:29:01;17.40;;;8.43;;
61911;SDS011;49973;52.084;5.412;2022-12-18T13:34:40;14.60;;;8.17;;
61911;SDS011;49973;52.084;5.412;2022-12-18T13:43:28;17.70;;;8.40;;
61911;SDS011;49973;52.084;5.412;2022-12-18T13:46:18;17.20;;;8.90;;
61911;SDS011;49973;52.084;5.412;2022-12-18T13:48:59;16.73;;;8.87;;
61911;SDS011;49973;52.084;5.412;2022-12-18T13:51:32;15.40;;;8.43;;
61911;SDS011;49973;52.084;5.412;2022-12-18T13:54:02;17.30;;;8.73;;
61911;SDS011;49973;52.084;5.412;2022-12-18T13:56:43;18.40;;;9.37;;
61911;SDS011;49973;52.084;5.412;2022-12-18T13:59:15;17.33;;;8.63;;
61911;SDS011;49973;52.084;5.412;2022-12-18T14:01:53;17.07;;;8.77;;
61911;SDS011;49973;52.084;5.412;2022-12-18T14:04:24;17.87;;;8.30;;
61911;SDS011;49973;52.084;5.412;2022-12-18T14:06:56;15.17;;;8.53;;
61911;SDS011;49973;52.084;5.412;2022-12-18T14:09:28;14.70;;;7.63;;
61911;SDS011;49973;52.084;5.412;2022-12-18T14:11:59;17.07;;;7.77;;
61911;SDS011;49973;52.084;5.412;2022-12-18T14:14:47;12.73;;;7.40;;
61911;SDS011;49973;52.084;5.412;2022-12-18T14:17:22;14.40;;;8.00;;
61911;SDS011;49973;52.084;5.412;2022-12-18T14:19:51;17.97;;;8.87;;
61911;SDS011;49973;52.084;5.412;2022-12-18T14:22:20;14.77;;;8.63;;
61911;SDS011;49973;52.084;5.412;2022-12-18T14:27:44;16.83;;;8.67;;
61911;SDS011;49973;52.084;5.412;2022-12-18T14:30:24;13.93;;;8.70;;
61911;SDS011;49973;52.084;5.412;2022-12-18T14:33:02;14.10;;;7.90;;
61911;SDS011;49973;52.084;5.412;2022-12-18T14:35:33;16.50;;;8.47;;
61911;SDS011;49973;52.084;5.412;2022-12-18T14:38:10;18.03;;;9.60;;
61911;SDS011;49973;52.084;5.412;2022-12-18T14:40:47;15.73;;;7.40;;
61911;SDS011;49973;52.084;5.412;2022-12-18T14:43:19;14.20;;;7.60;;
61911;SDS011;49973;52.084;5.412;2022-12-18T14:45:48;17.50;;;9.10;;
61911;SDS011;49973;52.084;5.412;2022-12-18T14:48:20;16.43;;;9.13;;
61911;SDS011;49973;52.084;5.412;2022-12-18T14:51:02;13.97;;;8.43;;
61911;SDS011;49973;52.084;5.412;2022-12-18T14:53:34;19.97;;;8.27;;
61911;SDS011;49973;52.084;5.412;2022-12-18T14:56:12;21.23;;;8.33;;
61911;SDS011;49973;52.084;5.412;2022-12-18T14:58:47;18.57;;;8.53;;
61911;SDS011;49973;52.084;5.412;2022-12-18T15:01:20;21.93;;;9.97;;
61911;SDS011;49973;52.084;5.412;2022-12-18T15:03:53;15.90;;;9.27;;
61911;SDS011;49973;52.084;5.412;2022-12-18T15:06:25;19.63;;;9.53;;
61911;SDS011;49973;52.084;5.412;2022-12-18T15:08:58;18.40;;;9.00;;
61911;SDS011;49973;52.084;5.412;2022-12-18T15:11:30;17.17;;;8.63;;
61911;SDS011;49973;52.084;5.412;2022-12-18T15:14:21;17.63;;;8.63;;
61911;SDS011;49973;52.084;5.412;2022-12-18T15:16:52;16.03;;;7.90;;
61911;SDS011;49973;52.084;5.412;2022-12-18T15:19:25;20.93;;;8.97;;